Terminal Aerodrome Forecast
Issued by NWS

Home | Current Version | Previous Version | Text Only | Print | Product List | Glossary On
Versions: 1 2 3 4 5 6 7 8 9 10 11 12 13 14 15 16 17 18 19 20 21 22 23 24 25 26 27 28 29 30 31 32 33 34 35 36 37 38 39 40 41 42 43 44
000
FTAK31 PANC 222330
TAFACD
TAF
PACD 222330Z 2300/2324 33025G35KT P6SM -SHRA OVC025
      TEMPO 2300/2304 BKN035
     FM230400 32020G30KT P6SM VCSH SCT015 OVC035
      TEMPO 2304/2308 BKN008
     FM231400 32012G22KT P6SM BKN040
     FM232000 24012G22KT P6SM -RA OVC025=

USA.gov is the U.S. government's official web portal to all federal, state and local government web resources and services.